createdAt,value
2023-05-16T00:00:54.936Z,90.92
2023-05-16T00:01:55.003Z,90.92
2023-05-16T00:02:55.013Z,90.92
2023-05-16T00:03:55.002Z,91.33
2023-05-16T00:04:54.894Z,91.33
2023-05-16T00:05:54.891Z,91.33
2023-05-16T00:06:54.875Z,91.64
2023-05-16T00:07:54.895Z,91.94
2023-05-16T00:08:54.862Z,91.94
2023-05-16T00:09:54.858Z,91.94
2023-05-16T00:10:54.835Z,91.94
2023-05-16T00:11:54.851Z,91.94
2023-05-16T00:12:54.810Z,92.04
2023-05-16T00:13:54.820Z,92.04
2023-05-16T00:14:54.776Z,91.94
2023-05-16T00:15:54.779Z,91.94
2023-05-16T00:16:54.821Z,92.04
2023-05-16T00:17:54.813Z,91.94
2023-05-16T00:18:54.757Z,92.04
2023-05-16T00:19:54.730Z,92.04
2023-05-16T00:20:54.749Z,91.94
2023-05-16T00:21:54.724Z,92.04
2023-05-16T00:22:54.726Z,92.14
2023-05-16T00:23:54.742Z,92.25
2023-05-16T00:24:54.695Z,92.45
2023-05-16T00:25:54.686Z,92.45
2023-05-16T00:26:54.661Z,92.55
2023-05-16T00:27:54.669Z,92.65
2023-05-16T00:28:54.642Z,92.76
2023-05-16T00:29:54.631Z,92.86
2023-05-16T00:30:54.612Z,92.86
2023-05-16T00:31:54.644Z,92.76
2023-05-16T00:32:54.680Z,92.65
2023-05-16T00:33:54.600Z,92.65
2023-05-16T00:34:54.590Z,92.65
2023-05-16T00:35:54.568Z,92.55
2023-05-16T00:36:54.555Z,92.55
2023-05-16T00:37:54.553Z,92.55
2023-05-16T00:38:54.525Z,92.45
2023-05-16T00:39:54.531Z,92.45
2023-05-16T00:40:54.518Z,92.45
2023-05-16T00:41:54.498Z,92.35
2023-05-16T00:42:54.488Z,92.35
2023-05-16T00:43:54.481Z,92.45
2023-05-16T00:44:54.472Z,92.45
2023-05-16T00:45:54.498Z,92.55
2023-05-16T00:46:54.481Z,92.76
2023-05-16T00:47:54.507Z,92.90
2023-05-16T00:48:54.420Z,93.10
2023-05-16T00:49:54.434Z,93.31
2023-05-16T00:50:54.410Z,93.41
2023-05-16T00:51:54.423Z,93.71
2023-05-16T00:52:54.379Z,93.62
2023-05-16T00:53:54.375Z,93.82
2023-05-16T00:54:54.366Z,93.82
2023-05-16T00:55:54.359Z,93.92
2023-05-16T00:56:54.336Z,93.92
2023-05-16T00:57:54.329Z,93.82
2023-05-16T00:58:54.319Z,93.92
2023-05-16T00:59:54.308Z,93.92
2023-05-16T01:00:54.292Z,94.02
2023-05-16T01:01:54.427Z,94.12
2023-05-16T01:02:54.369Z,94.12
2023-05-16T01:03:54.368Z,94.17
2023-05-16T01:04:54.255Z,94.07
2023-05-16T01:05:54.244Z,94.07
2023-05-16T01:06:54.236Z,94.17
2023-05-16T01:07:54.221Z,94.57
2023-05-16T01:08:54.200Z,94.57
2023-05-16T01:09:54.225Z,94.47
2023-05-16T01:10:54.182Z,94.47
2023-05-16T01:11:54.192Z,94.27
2023-05-16T01:12:54.177Z,94.37
2023-05-16T01:13:54.161Z,94.57
2023-05-16T01:14:54.128Z,94.62
2023-05-16T01:15:54.144Z,94.52
2023-05-16T01:16:54.148Z,94.42
2023-05-16T01:17:54.155Z,94.42
2023-05-16T01:18:54.208Z,94.72
2023-05-16T01:19:54.097Z,95.03
2023-05-16T01:20:54.061Z,95.13
2023-05-16T01:21:54.061Z,95.33
2023-05-16T01:22:54.053Z,95.33
2023-05-16T01:23:54.056Z,95.33
2023-05-16T01:24:54.019Z,95.33
2023-05-16T01:25:54.046Z,95.23
2023-05-16T01:26:54.047Z,95.23
2023-05-16T01:27:54.025Z,95.43
2023-05-16T01:28:54.026Z,95.43
2023-05-16T01:29:53.995Z,95.43
2023-05-16T01:30:53.965Z,95.43
2023-05-16T01:31:54.012Z,95.43
2023-05-16T01:32:54.059Z,95.64
2023-05-16T01:33:53.941Z,95.64
2023-05-16T01:34:53.919Z,95.53
2023-05-16T01:35:53.912Z,95.53
2023-05-16T01:36:53.921Z,95.43
2023-05-16T01:37:53.905Z,95.53
2023-05-16T01:38:53.889Z,95.53
2023-05-16T01:39:53.879Z,95.68
2023-05-16T01:40:53.871Z,95.68
2023-05-16T01:41:53.848Z,95.78
2023-05-16T01:42:53.820Z,95.78
2023-05-16T01:43:53.824Z,95.78
2023-05-16T01:44:53.847Z,95.89
2023-05-16T01:45:53.814Z,95.89
2023-05-16T01:46:53.847Z,95.89
2023-05-16T01:47:53.843Z,95.89
2023-05-16T01:48:53.776Z,95.89
2023-05-16T01:49:53.798Z,95.98
2023-05-16T01:50:53.760Z,95.98
2023-05-16T01:51:53.768Z,95.98
2023-05-16T01:52:53.737Z,95.89
2023-05-16T01:53:53.724Z,95.89
2023-05-16T01:54:53.705Z,95.89
2023-05-16T01:55:53.712Z,95.89
2023-05-16T01:56:53.686Z,95.89
2023-05-16T01:57:53.687Z,95.78
2023-05-16T01:58:53.681Z,95.78
2023-05-16T01:59:53.659Z,95.89
2023-05-16T02:00:53.677Z,95.89
2023-05-16T02:01:53.650Z,95.78
2023-05-16T02:02:53.662Z,95.89
2023-05-16T02:03:53.696Z,95.89
2023-05-16T02:04:53.609Z,95.78
2023-05-16T02:05:53.638Z,95.78
2023-05-16T02:06:53.590Z,95.68
2023-05-16T02:07:53.579Z,95.68
2023-05-16T02:08:53.553Z,95.68
2023-05-16T02:09:53.553Z,95.78
2023-05-16T02:10:53.562Z,95.89
2023-05-16T02:11:53.541Z,95.89
2023-05-16T02:12:53.516Z,95.98
2023-05-16T02:13:53.502Z,95.98
2023-05-16T02:14:53.499Z,96.09
2023-05-16T02:15:53.500Z,96.09
2023-05-16T02:16:53.509Z,96.19
2023-05-16T02:17:53.595Z,96.19
2023-05-16T02:18:53.506Z,96.19
2023-05-16T02:19:53.440Z,96.19
2023-05-16T02:20:53.427Z,96.09
2023-05-16T02:21:53.429Z,96.09
2023-05-16T02:22:53.413Z,96.09
2023-05-16T02:23:53.416Z,96.19
2023-05-16T02:24:53.384Z,96.19
2023-05-16T02:25:53.376Z,96.09
2023-05-16T02:26:53.364Z,96.09
2023-05-16T02:27:53.354Z,96.09
2023-05-16T02:28:53.359Z,96.19
2023-05-16T02:29:53.335Z,96.30
2023-05-16T02:30:53.349Z,96.30
2023-05-16T02:31:53.333Z,96.30
2023-05-16T02:32:53.402Z,96.19
2023-05-16T02:33:53.286Z,96.23
2023-05-16T02:34:53.280Z,96.34
2023-05-16T02:35:53.286Z,96.34
2023-05-16T02:36:53.245Z,96.34
2023-05-16T02:37:53.253Z,96.34
2023-05-16T02:38:53.231Z,96.44
2023-05-16T02:39:53.257Z,96.44
2023-05-16T02:40:53.210Z,96.44
2023-05-16T02:41:53.216Z,96.54
2023-05-16T02:42:53.185Z,96.54
2023-05-16T02:43:53.180Z,96.54
2023-05-16T02:44:53.184Z,96.64
2023-05-16T02:45:53.230Z,96.64
2023-05-16T02:46:53.159Z,96.54
2023-05-16T02:47:53.222Z,96.64
2023-05-16T02:48:53.125Z,96.64
2023-05-16T02:49:53.112Z,96.64
2023-05-16T02:50:53.114Z,96.64
2023-05-16T02:51:53.119Z,96.64
2023-05-16T02:52:53.091Z,96.75
2023-05-16T02:53:53.074Z,96.75
2023-05-16T02:55:04.749Z,96.64
2023-05-16T02:55:54.062Z,96.64
2023-05-16T02:56:53.033Z,96.64
2023-05-16T02:57:53.059Z,96.64
2023-05-16T02:58:53.007Z,96.64
2023-05-16T02:59:53.026Z,96.64
2023-05-16T03:00:52.991Z,96.64
2023-05-16T03:01:53.040Z,96.64
2023-05-16T03:02:53.103Z,96.54
2023-05-16T03:03:53.057Z,96.54
2023-05-16T03:04:52.949Z,96.64
2023-05-16T03:05:52.936Z,96.64
2023-05-16T03:06:52.927Z,96.64
2023-05-16T03:07:52.918Z,96.75
2023-05-16T03:08:52.919Z,96.75
2023-05-16T03:09:52.908Z,96.75
2023-05-16T03:10:52.882Z,96.75
2023-05-16T03:11:52.883Z,96.84
2023-05-16T03:12:52.894Z,96.84
2023-05-16T03:13:52.876Z,96.95
2023-05-16T03:14:52.840Z,96.95
2023-05-16T03:15:52.898Z,96.95
2023-05-16T03:16:52.816Z,97.05
2023-05-16T03:17:52.835Z,97.09
2023-05-16T03:18:52.922Z,97.20
2023-05-16T03:19:52.787Z,97.20
2023-05-16T03:20:52.822Z,97.30
2023-05-16T03:21:52.832Z,97.30
2023-05-16T03:22:52.772Z,97.30
2023-05-16T03:23:52.758Z,97.25
2023-05-16T03:24:52.737Z,97.30
2023-05-16T03:25:52.724Z,97.40
2023-05-16T03:26:52.733Z,97.30
2023-05-16T03:27:52.705Z,97.50
2023-05-16T03:28:52.697Z,97.50
2023-05-16T03:29:52.687Z,97.50
2023-05-16T03:30:52.694Z,97.61
2023-05-16T03:31:52.682Z,97.71
2023-05-16T03:32:52.701Z,97.71
2023-05-16T03:33:52.652Z,97.71
2023-05-16T03:34:52.646Z,97.71
2023-05-16T03:35:52.637Z,97.81
2023-05-16T03:36:52.626Z,97.81
2023-05-16T03:37:52.642Z,97.81
2023-05-16T03:38:52.599Z,97.91
2023-05-16T03:39:52.594Z,97.91
2023-05-16T03:40:52.612Z,97.91
2023-05-16T03:41:52.610Z,98.02
2023-05-16T03:42:52.553Z,98.02
2023-05-16T03:43:52.946Z,98.02
2023-05-16T03:44:52.517Z,98.11
2023-05-16T03:45:52.571Z,98.11
2023-05-16T03:46:52.502Z,98.11
2023-05-16T03:47:52.518Z,98.11
2023-05-16T03:48:52.485Z,98.11
2023-05-16T03:49:52.481Z,98.18
2023-05-16T03:50:52.483Z,98.22
2023-05-16T03:51:52.481Z,98.18
2023-05-16T03:52:52.430Z,98.18
2023-05-16T03:53:52.445Z,98.18
2023-05-16T03:54:52.406Z,98.18
2023-05-16T03:55:52.412Z,98.27
2023-05-16T03:56:52.389Z,98.18
2023-05-16T03:57:52.381Z,98.18
2023-05-16T03:58:52.371Z,98.18
2023-05-16T03:59:52.384Z,98.18
2023-05-16T04:00:52.344Z,98.27
2023-05-16T04:01:52.361Z,98.27
2023-05-16T04:02:52.458Z,98.27
2023-05-16T04:03:52.320Z,98.27
2023-05-16T04:04:52.317Z,98.18
2023-05-16T04:05:52.317Z,98.18
2023-05-16T04:06:52.292Z,98.18
2023-05-16T04:07:52.275Z,98.18
2023-05-16T04:08:52.289Z,98.18
2023-05-16T04:09:52.270Z,98.07
2023-05-16T04:10:52.225Z,98.18
2023-05-16T04:11:52.241Z,98.18
2023-05-16T04:12:52.244Z,98.27
2023-05-16T04:13:52.275Z,98.27
2023-05-16T04:14:52.213Z,98.27
2023-05-16T04:15:52.178Z,98.27
2023-05-16T04:16:52.216Z,98.27
2023-05-16T04:17:52.219Z,98.27
2023-05-16T04:18:52.255Z,98.27
2023-05-16T04:19:52.154Z,98.18
2023-05-16T04:20:52.128Z,98.18
2023-05-16T04:21:52.156Z,98.18
2023-05-16T04:22:52.130Z,98.18
2023-05-16T04:23:52.094Z,98.18
2023-05-16T04:24:52.089Z,98.18
2023-05-16T04:25:52.088Z,98.18
2023-05-16T04:26:52.068Z,98.18
2023-05-16T04:27:52.051Z,98.07
2023-05-16T04:28:52.065Z,98.07
2023-05-16T04:29:52.053Z,98.07
2023-05-16T04:30:52.027Z,97.92
2023-05-16T04:31:52.082Z,97.92
2023-05-16T04:32:52.132Z,97.92
2023-05-16T04:33:52.013Z,97.92
2023-05-16T04:34:52.703Z,97.82
2023-05-16T04:35:51.976Z,97.82
2023-05-16T04:36:52.669Z,97.82
2023-05-16T04:37:51.962Z,97.82
2023-05-16T04:38:51.958Z,97.82
2023-05-16T04:39:51.932Z,97.82
2023-05-16T04:40:51.948Z,97.82
2023-05-16T04:41:51.905Z,97.72
2023-05-16T04:42:51.898Z,97.72
2023-05-16T04:43:51.881Z,97.62
2023-05-16T04:44:51.873Z,97.52
2023-05-16T04:45:51.905Z,97.52
2023-05-16T04:46:51.919Z,97.41
2023-05-16T04:47:51.881Z,97.41
2023-05-16T04:48:51.835Z,97.37
2023-05-16T04:49:51.810Z,97.27
2023-05-16T04:50:51.827Z,97.16
2023-05-16T04:51:51.789Z,97.16
2023-05-16T04:52:51.798Z,97.06
2023-05-16T04:53:51.779Z,96.96
2023-05-16T04:54:51.783Z,96.96
2023-05-16T04:55:51.755Z,96.96
2023-05-16T04:56:51.751Z,96.96
2023-05-16T04:57:51.740Z,96.96
2023-05-16T04:58:51.727Z,96.96
2023-05-16T04:59:51.724Z,96.96
2023-05-16T05:00:51.697Z,96.96
2023-05-16T05:01:51.741Z,96.86
2023-05-16T05:02:51.729Z,96.86
2023-05-16T05:03:51.681Z,96.81
2023-05-16T05:04:51.733Z,96.81
2023-05-16T05:05:51.643Z,96.71
2023-05-16T05:06:51.648Z,96.71
2023-05-16T05:07:51.616Z,96.71
2023-05-16T05:08:51.616Z,96.71
2023-05-16T05:09:51.605Z,96.71
2023-05-16T05:10:51.603Z,96.81
2023-05-16T05:11:51.613Z,96.71
2023-05-16T05:12:51.576Z,96.71
2023-05-16T05:13:53.114Z,96.71
2023-05-16T05:14:51.568Z,96.71
2023-05-16T05:15:51.538Z,96.71
2023-05-16T05:16:51.567Z,96.71
2023-05-16T05:17:51.610Z,96.61
2023-05-16T05:18:51.731Z,96.71
2023-05-16T05:19:51.506Z,96.71
2023-05-16T05:20:51.481Z,96.71
2023-05-16T05:21:51.501Z,96.51
2023-05-16T05:22:51.458Z,96.51
2023-05-16T05:23:51.457Z,96.41
2023-05-16T05:24:51.439Z,96.36
2023-05-16T05:25:51.439Z,96.26
2023-05-16T05:26:51.432Z,96.26
2023-05-16T05:27:51.409Z,96.06
2023-05-16T05:29:03.966Z,95.95
2023-05-16T05:29:52.403Z,95.95
2023-05-16T05:30:51.403Z,95.95
2023-05-16T05:31:51.389Z,95.95
2023-05-16T05:32:51.365Z,95.95
2023-05-16T05:33:51.350Z,95.85
2023-05-16T05:34:51.328Z,95.85
2023-05-16T05:35:51.321Z,95.65
2023-05-16T05:36:51.304Z,95.65
2023-05-16T05:37:51.297Z,95.75
2023-05-16T05:38:51.285Z,95.75
2023-05-16T05:39:51.266Z,95.45
2023-05-16T05:40:51.262Z,95.45
2023-05-16T05:41:51.310Z,95.34
2023-05-16T05:42:51.246Z,95.34
2023-05-16T05:43:51.222Z,95.45
2023-05-16T05:44:51.264Z,95.34
2023-05-16T05:45:51.230Z,95.34
2023-05-16T05:46:51.210Z,95.34
2023-05-16T05:47:51.335Z,95.34
2023-05-16T05:48:51.168Z,95.34
2023-05-16T05:49:51.165Z,95.34
2023-05-16T05:50:51.174Z,95.34
2023-05-16T05:51:51.164Z,95.24
2023-05-16T05:52:51.132Z,95.34
2023-05-16T05:53:51.122Z,95.45
2023-05-16T05:54:51.125Z,95.45
2023-05-16T05:55:51.093Z,95.34
2023-05-16T05:56:51.111Z,95.14
2023-05-16T05:57:51.075Z,95.14
2023-05-16T05:58:51.077Z,95.14
2023-05-16T05:59:51.056Z,95.00
2023-05-16T06:00:51.048Z,95.00
2023-05-16T06:01:51.087Z,94.89
2023-05-16T06:02:51.169Z,94.79
2023-05-16T06:03:51.007Z,94.89
2023-05-16T06:04:51.038Z,94.79
2023-05-16T06:05:51.066Z,94.69
2023-05-16T06:06:50.988Z,94.48
2023-05-16T06:07:50.983Z,94.38
2023-05-16T06:08:50.977Z,94.48
2023-05-16T06:09:50.948Z,94.38
2023-05-16T06:10:50.969Z,94.18
2023-05-16T06:11:50.968Z,94.08
2023-05-16T06:12:50.920Z,93.87
2023-05-16T06:13:50.920Z,93.73
2023-05-16T06:14:50.892Z,93.43
2023-05-16T06:15:50.879Z,93.32
2023-05-16T06:16:50.906Z,93.02
2023-05-16T06:17:50.912Z,92.82
2023-05-16T06:18:50.861Z,92.91
2023-05-16T06:19:50.855Z,92.82
2023-05-16T06:20:50.832Z,92.82
2023-05-16T06:21:50.820Z,92.61
2023-05-16T06:22:50.816Z,92.61
2023-05-16T06:23:50.824Z,92.51
2023-05-16T06:24:50.785Z,92.61
2023-05-16T06:25:50.776Z,92.06
2023-05-16T06:26:50.790Z,91.75
2023-05-16T06:27:50.750Z,91.86
2023-05-16T06:28:50.753Z,91.86
2023-05-16T06:29:50.736Z,91.86
2023-05-16T06:30:50.754Z,91.75
2023-05-16T06:31:50.802Z,91.65
2023-05-16T06:32:50.742Z,91.45
2023-05-16T06:33:50.688Z,91.10
2023-05-16T06:34:50.703Z,91.00
2023-05-16T06:35:50.687Z,90.90
2023-05-16T06:36:50.671Z,90.59
2023-05-16T06:37:50.654Z,90.49
2023-05-16T06:38:50.637Z,90.59
2023-05-16T06:39:50.656Z,90.70
2023-05-16T06:40:50.614Z,90.49
2023-05-16T06:41:50.607Z,90.19
2023-05-16T06:42:50.624Z,90.53
2023-05-16T06:43:50.576Z,90.53
2023-05-16T06:44:50.608Z,90.74
2023-05-16T06:45:50.562Z,91.05
2023-05-16T06:46:50.640Z,90.94
2023-05-16T06:47:50.571Z,91.14
2023-05-16T06:48:50.539Z,91.14
2023-05-16T06:49:50.543Z,91.14
2023-05-16T06:50:50.525Z,90.94
2023-05-16T06:51:50.506Z,90.74
2023-05-16T06:52:50.491Z,90.74
2023-05-16T06:53:50.473Z,90.84
2023-05-16T06:54:50.477Z,90.74
2023-05-16T06:55:50.479Z,90.53
2023-05-16T06:56:50.448Z,90.53
2023-05-16T06:57:50.450Z,90.64
2023-05-16T06:58:50.443Z,90.74
2023-05-16T06:59:50.511Z,90.84
2023-05-16T07:00:50.499Z,90.94
2023-05-16T07:01:50.428Z,91.05
2023-05-16T07:02:50.523Z,91.14
2023-05-16T07:03:50.497Z,91.05
2023-05-16T07:04:50.403Z,90.94
2023-05-16T07:05:50.364Z,90.84
2023-05-16T07:06:50.340Z,90.84
2023-05-16T07:07:50.320Z,90.94
2023-05-16T07:08:50.314Z,90.84
2023-05-16T07:09:50.313Z,90.53
2023-05-16T07:10:50.294Z,90.53
2023-05-16T07:11:50.297Z,90.53
2023-05-16T07:12:50.273Z,90.33
2023-05-16T07:13:50.258Z,90.03
2023-05-16T07:14:50.271Z,89.72
2023-05-16T07:15:50.228Z,89.46
2023-05-16T07:16:50.264Z,89.56
2023-05-16T07:17:50.240Z,89.46
2023-05-16T07:18:50.269Z,89.26
2023-05-16T07:19:50.205Z,89.26
2023-05-16T07:20:50.190Z,89.46
2023-05-16T07:21:50.177Z,89.66
2023-05-16T07:22:50.181Z,89.87
2023-05-16T07:23:50.165Z,89.97
2023-05-16T07:24:50.144Z,90.07
2023-05-16T07:25:50.133Z,90.17
2023-05-16T07:26:50.140Z,89.97
2023-05-16T07:27:50.109Z,89.66
2023-05-16T07:28:50.112Z,89.76
2023-05-16T07:29:50.098Z,89.62
2023-05-16T07:30:50.076Z,89.31
2023-05-16T07:31:50.098Z,88.71
2023-05-16T07:32:50.134Z,88.40
2023-05-16T07:33:50.056Z,88.10
2023-05-16T07:34:50.042Z,87.89
2023-05-16T07:35:50.031Z,87.85
2023-05-16T07:36:50.017Z,87.55
2023-05-16T07:37:50.001Z,87.14
2023-05-16T07:38:50.028Z,87.04
2023-05-16T07:39:49.981Z,86.80
2023-05-16T07:40:49.971Z,86.59
2023-05-16T07:41:49.954Z,86.29
2023-05-16T07:42:49.947Z,85.84
2023-05-16T07:43:49.977Z,85.64
2023-05-16T07:44:49.924Z,84.93
2023-05-16T07:45:49.965Z,85.03
2023-05-16T07:46:49.900Z,84.83
2023-05-16T07:47:49.946Z,84.52
2023-05-16T07:48:49.882Z,84.42
2023-05-16T07:49:49.890Z,84.32
2023-05-16T07:50:49.861Z,84.32
2023-05-16T07:51:49.851Z,84.22
2023-05-16T07:52:49.836Z,84.12
2023-05-16T07:53:49.821Z,84.32
2023-05-16T07:54:49.822Z,84.52
2023-05-16T07:55:49.798Z,84.58
2023-05-16T07:56:49.790Z,84.48
2023-05-16T07:57:50.578Z,83.98
2023-05-16T07:58:49.802Z,83.26
2023-05-16T07:59:49.807Z,82.96
2023-05-16T08:00:49.768Z,82.96
2023-05-16T08:01:49.748Z,83.17
2023-05-16T08:02:49.801Z,82.86
2023-05-16T08:03:49.801Z,82.76
2023-05-16T08:04:49.702Z,82.50
2023-05-16T08:05:49.746Z,82.80
2023-05-16T08:06:49.701Z,82.90
2023-05-16T08:07:49.664Z,83.00
2023-05-16T08:08:49.661Z,83.31
2023-05-16T08:09:49.652Z,83.51
2023-05-16T08:10:50.397Z,83.71
2023-05-16T08:11:49.624Z,83.91
2023-05-16T08:12:49.620Z,83.71
2023-05-16T08:13:49.652Z,83.91
2023-05-16T08:14:49.600Z,83.91
2023-05-16T08:15:49.644Z,83.81
2023-05-16T08:16:49.575Z,83.81
2023-05-16T08:17:49.621Z,83.51
2023-05-16T08:18:49.592Z,83.00
2023-05-16T08:19:49.532Z,83.00
2023-05-16T08:20:49.530Z,83.00
2023-05-16T08:21:49.515Z,83.10
2023-05-16T08:22:49.514Z,83.10
2023-05-16T08:23:49.505Z,83.40
2023-05-16T08:24:49.507Z,83.40
2023-05-16T08:25:49.464Z,83.20
2023-05-16T08:26:49.473Z,83.45
2023-05-16T08:27:49.474Z,83.45
2023-05-16T08:28:49.443Z,83.65
2023-05-16T08:29:49.451Z,84.16
2023-05-16T08:30:49.417Z,84.26
2023-05-16T08:31:49.526Z,84.56
2023-05-16T08:32:49.481Z,84.80
2023-05-16T08:33:49.382Z,84.91
2023-05-16T08:34:49.378Z,85.11
2023-05-16T08:35:49.372Z,85.21
2023-05-16T08:36:49.351Z,85.41
2023-05-16T08:37:49.348Z,85.31
2023-05-16T08:38:49.326Z,85.31
2023-05-16T08:39:49.325Z,85.21
2023-05-16T08:40:49.314Z,85.31
2023-05-16T08:41:49.314Z,85.41
2023-05-16T08:42:49.280Z,85.72
2023-05-16T08:43:49.281Z,85.52
2023-05-16T08:44:49.261Z,85.52
2023-05-16T08:45:49.285Z,85.41
2023-05-16T08:46:49.283Z,85.52
2023-05-16T08:47:49.289Z,85.38
2023-05-16T08:48:49.224Z,85.47
2023-05-16T08:49:49.975Z,85.58
2023-05-16T08:50:49.200Z,85.62
2023-05-16T08:51:49.191Z,85.82
2023-05-16T08:52:49.229Z,85.82
2023-05-16T08:53:49.193Z,86.13
2023-05-16T08:55:05.724Z,86.43
2023-05-16T08:55:50.152Z,86.43
2023-05-16T08:56:49.136Z,86.63
2023-05-16T08:57:49.125Z,86.63
2023-05-16T08:58:49.138Z,86.53
2023-05-16T08:59:49.105Z,86.53
2023-05-16T09:00:49.112Z,86.74
2023-05-16T09:01:49.096Z,86.80
2023-05-16T09:02:49.109Z,86.80
2023-05-16T09:03:49.101Z,86.49
2023-05-16T09:04:49.046Z,86.49
2023-05-16T09:05:49.040Z,86.49
2023-05-16T09:06:49.066Z,86.59
2023-05-16T09:07:49.019Z,86.59
2023-05-16T09:08:49.016Z,86.59
2023-05-16T09:09:49.019Z,86.39
2023-05-16T09:10:48.996Z,86.29
2023-05-16T09:11:48.974Z,86.19
2023-05-16T09:12:48.959Z,86.49
2023-05-16T09:13:48.985Z,86.29
2023-05-16T09:14:48.980Z,86.33
2023-05-16T09:15:48.951Z,86.53
2023-05-16T09:16:49.009Z,86.63
2023-05-16T09:17:49.251Z,86.74
2023-05-16T09:18:48.983Z,86.83
2023-05-16T09:19:48.897Z,87.14
2023-05-16T09:20:48.899Z,87.34
2023-05-16T09:21:48.869Z,87.45
2023-05-16T09:22:48.884Z,87.34
2023-05-16T09:23:48.856Z,87.45
2023-05-16T09:24:48.830Z,87.24
2023-05-16T09:25:48.820Z,87.14
2023-05-16T09:26:48.825Z,87.10
2023-05-16T09:27:48.820Z,87.10
2023-05-16T09:28:48.803Z,87.00
2023-05-16T09:29:48.780Z,87.00
2023-05-16T09:30:48.823Z,87.00
2023-05-16T09:31:48.818Z,86.80
2023-05-16T09:32:48.781Z,86.80
2023-05-16T09:33:48.733Z,86.59
2023-05-16T09:34:48.737Z,86.35
2023-05-16T09:35:49.070Z,86.35
2023-05-16T09:36:48.717Z,86.35
2023-05-16T09:37:48.711Z,86.25
2023-05-16T09:38:48.676Z,85.90
2023-05-16T09:39:48.666Z,85.70
2023-05-16T09:40:48.660Z,85.36
2023-05-16T09:41:48.666Z,84.75
2023-05-16T09:42:48.636Z,84.50
2023-05-16T09:43:48.627Z,84.30
2023-05-16T09:44:48.608Z,84.06
2023-05-16T09:45:48.630Z,83.65
2023-05-16T09:46:48.727Z,82.75
2023-05-16T09:47:48.655Z,82.75
2023-05-16T09:48:48.630Z,82.75
2023-05-16T09:49:48.567Z,83.04
2023-05-16T09:50:48.548Z,83.25
2023-05-16T09:51:48.550Z,83.35
2023-05-16T09:52:48.551Z,83.49
2023-05-16T09:53:48.518Z,83.49
2023-05-16T09:54:48.500Z,83.59
2023-05-16T09:55:48.495Z,83.53
2023-05-16T09:56:48.494Z,83.83
2023-05-16T09:57:48.472Z,84.04
2023-05-16T09:58:48.484Z,83.94
2023-05-16T09:59:48.462Z,84.24
2023-05-16T10:00:48.438Z,84.24
2023-05-16T10:01:48.497Z,84.24
2023-05-16T10:02:48.491Z,84.34
2023-05-16T10:03:48.516Z,84.41
2023-05-16T10:04:48.412Z,83.76
2023-05-16T10:05:48.406Z,83.35
2023-05-16T10:06:48.372Z,83.11
2023-05-16T10:07:48.377Z,82.70
2023-05-16T10:08:48.350Z,82.26
2023-05-16T10:09:48.349Z,81.96
2023-05-16T10:10:48.360Z,81.45
2023-05-16T10:11:48.322Z,81.11
2023-05-16T10:12:48.311Z,81.31
2023-05-16T10:13:48.301Z,81.82
2023-05-16T10:14:48.300Z,81.51
2023-05-16T10:15:48.289Z,80.91
2023-05-16T10:16:48.420Z,80.71
2023-05-16T10:17:48.328Z,79.79
2023-05-16T10:18:48.295Z,79.66
2023-05-16T10:19:48.239Z,79.15
2023-05-16T10:20:48.222Z,78.55
2023-05-16T10:21:48.243Z,78.41
2023-05-16T10:22:48.198Z,78.30
2023-05-16T10:23:48.199Z,78.41
2023-05-16T10:24:48.189Z,78.30
2023-05-16T10:25:48.190Z,78.20
2023-05-16T10:26:48.184Z,78.10
2023-05-16T10:27:48.146Z,78.06
2023-05-16T10:28:48.143Z,78.30
2023-05-16T10:29:54.764Z,77.97
2023-05-16T10:30:49.107Z,78.10
2023-05-16T10:31:48.130Z,78.61
2023-05-16T10:32:48.150Z,78.91
2023-05-16T10:33:48.086Z,78.91
2023-05-16T10:34:48.064Z,79.32
2023-05-16T10:35:48.062Z,79.75
2023-05-16T10:36:48.052Z,79.75
2023-05-16T10:37:48.032Z,79.55
2023-05-16T10:38:48.024Z,79.55
2023-05-16T10:39:48.028Z,79.79
2023-05-16T10:40:48.013Z,80.10
2023-05-16T10:41:48.002Z,80.30
2023-05-16T10:42:47.977Z,80.30
2023-05-16T10:43:48.005Z,80.50
2023-05-16T10:44:58.519Z,80.54
2023-05-16T10:45:48.986Z,80.44
2023-05-16T10:46:47.939Z,80.64
2023-05-16T10:47:47.946Z,80.34
2023-05-16T10:48:49.638Z,80.18
2023-05-16T10:49:47.905Z,80.58
2023-05-16T10:50:47.882Z,80.98
2023-05-16T10:51:47.898Z,81.23
2023-05-16T10:52:47.867Z,81.52
2023-05-16T10:53:47.885Z,81.93
2023-05-16T10:54:47.859Z,81.93
2023-05-16T10:55:47.845Z,82.24
2023-05-16T10:56:47.825Z,82.68
2023-05-16T10:57:47.827Z,83.39
2023-05-16T10:58:47.802Z,83.80
2023-05-16T10:59:47.832Z,84.30
2023-05-16T11:00:47.782Z,84.50
2023-05-16T11:01:47.890Z,84.85
2023-05-16T11:02:47.892Z,84.95
2023-05-16T11:03:47.774Z,85.76
2023-05-16T11:04:47.737Z,85.86
2023-05-16T11:05:47.779Z,86.47
2023-05-16T11:06:47.713Z,86.98
2023-05-16T11:07:47.707Z,87.48
2023-05-16T11:08:47.690Z,87.48
2023-05-16T11:09:47.691Z,87.63
2023-05-16T11:10:47.667Z,87.63
2023-05-16T11:11:49.399Z,87.63
2023-05-16T11:12:47.655Z,87.73
2023-05-16T11:13:47.642Z,87.83
2023-05-16T11:14:47.637Z,87.93
2023-05-16T11:15:47.620Z,87.67
2023-05-16T11:16:47.670Z,87.37
2023-05-16T11:17:47.654Z,87.37
2023-05-16T11:18:47.608Z,87.67
2023-05-16T11:19:47.579Z,88.01
2023-05-16T11:20:47.560Z,87.71
2023-05-16T11:21:47.554Z,88.01
2023-05-16T11:22:47.543Z,88.52
2023-05-16T11:23:47.545Z,88.42
2023-05-16T11:24:47.516Z,88.93
2023-05-16T11:25:47.516Z,89.13
2023-05-16T11:26:47.494Z,88.82
2023-05-16T11:27:47.523Z,89.13
2023-05-16T11:28:47.474Z,89.23
2023-05-16T11:29:47.473Z,89.43
2023-05-16T11:30:47.474Z,89.43
2023-05-16T11:31:47.532Z,89.33
2023-05-16T11:32:47.502Z,89.54
2023-05-16T11:33:47.438Z,89.64
2023-05-16T11:34:47.413Z,90.05
2023-05-16T11:35:47.428Z,89.94
2023-05-16T11:36:47.382Z,89.94
2023-05-16T11:37:47.388Z,89.43
2023-05-16T11:38:47.367Z,89.13
2023-05-16T11:39:47.432Z,89.13
2023-05-16T11:40:47.359Z,88.82
2023-05-16T11:41:48.925Z,88.01
2023-05-16T11:42:47.322Z,88.78
2023-05-16T11:43:47.335Z,88.89
2023-05-16T11:44:47.312Z,88.48
2023-05-16T11:45:47.316Z,88.89
2023-05-16T11:46:47.332Z,88.89
2023-05-16T11:47:47.293Z,88.78
2023-05-16T11:48:47.439Z,88.48
2023-05-16T11:49:48.873Z,88.18
2023-05-16T11:50:47.242Z,86.96
2023-05-16T11:51:47.229Z,87.57
2023-05-16T11:52:47.223Z,87.06
2023-05-16T11:53:47.225Z,87.06
2023-05-16T11:54:47.202Z,86.76
2023-05-16T11:55:50.726Z,86.65
2023-05-16T11:56:48.175Z,86.86
2023-05-16T11:57:47.161Z,86.96
2023-05-16T11:58:47.163Z,86.65
2023-05-16T11:59:47.136Z,85.74
2023-05-16T12:00:47.145Z,85.44
2023-05-16T12:01:47.119Z,85.74
2023-05-16T12:02:47.209Z,85.53
2023-05-16T12:03:47.444Z,85.84
2023-05-16T12:04:47.214Z,86.05
2023-05-16T12:05:47.217Z,86.05
2023-05-16T12:06:47.087Z,86.05
2023-05-16T12:07:47.054Z,85.53
2023-05-16T12:08:47.047Z,85.53
2023-05-16T12:09:47.035Z,85.33
2023-05-16T12:10:47.053Z,85.33
2023-05-16T12:11:47.020Z,85.03
2023-05-16T12:12:47.014Z,85.13
2023-05-16T12:13:46.989Z,85.53
2023-05-16T12:14:46.977Z,85.03
2023-05-16T12:15:46.961Z,85.03
2023-05-16T12:16:47.045Z,84.83
2023-05-16T12:17:47.023Z,84.83
2023-05-16T12:18:46.990Z,84.42
2023-05-16T12:19:46.926Z,83.67
2023-05-16T12:20:47.814Z,83.71
2023-05-16T12:21:46.952Z,83.77
2023-05-16T12:22:46.942Z,83.67
2023-05-16T12:23:46.892Z,82.66
2023-05-16T12:24:46.895Z,82.96
2023-05-16T12:25:46.924Z,82.96
2023-05-16T12:26:46.855Z,83.57
2023-05-16T12:27:46.898Z,83.06
2023-05-16T12:28:46.840Z,82.96
2023-05-16T12:29:46.859Z,83.17
2023-05-16T12:30:46.856Z,82.92
2023-05-16T12:31:46.854Z,82.31
2023-05-16T12:32:46.934Z,81.81
2023-05-16T12:33:46.824Z,82.01
2023-05-16T12:34:46.766Z,82.01
2023-05-16T12:35:46.782Z,81.60
2023-05-16T12:36:46.756Z,81.77
2023-05-16T12:37:46.746Z,81.26
2023-05-16T12:38:47.061Z,81.16
2023-05-16T12:39:46.724Z,80.82
2023-05-16T12:40:46.695Z,80.92
2023-05-16T12:41:46.680Z,80.52
2023-05-16T12:42:46.703Z,80.31
2023-05-16T12:43:46.667Z,80.31
2023-05-16T12:44:46.654Z,80.21
2023-05-16T12:45:46.648Z,80.62
2023-05-16T12:46:46.828Z,80.65
2023-05-16T12:47:46.662Z,81.37
2023-05-16T12:48:46.608Z,81.26
2023-05-16T12:49:46.601Z,82.07
2023-05-16T12:50:46.630Z,81.67
2023-05-16T12:51:46.578Z,81.30
2023-05-16T12:52:46.578Z,81.20